sensor_id;sensor_type;location;lat;lon;timestamp;P1;durP1;ratioP1;P2;durP2;ratioP2
6537;SDS011;3302;52.508;13.454;2024-02-28T00:01:51;15.93;;;8.93;;
6537;SDS011;3302;52.508;13.454;2024-02-28T00:04:18;16.27;;;10.40;;
6537;SDS011;3302;52.508;13.454;2024-02-28T00:06:44;15.23;;;8.87;;
6537;SDS011;3302;52.508;13.454;2024-02-28T00:09:12;17.20;;;9.03;;
6537;SDS011;3302;52.508;13.454;2024-02-28T00:11:44;14.40;;;8.57;;
6537;SDS011;3302;52.508;13.454;2024-02-28T00:14:11;15.27;;;8.23;;
6537;SDS011;3302;52.508;13.454;2024-02-28T00:16:41;14.63;;;7.80;;
6537;SDS011;3302;52.508;13.454;2024-02-28T00:19:11;14.07;;;8.20;;
6537;SDS011;3302;52.508;13.454;2024-02-28T00:21:37;14.10;;;8.20;;
6537;SDS011;3302;52.508;13.454;2024-02-28T00:24:04;13.43;;;8.30;;
6537;SDS011;3302;52.508;13.454;2024-02-28T00:26:30;14.23;;;8.27;;
6537;SDS011;3302;52.508;13.454;2024-02-28T00:28:56;16.07;;;9.97;;
6537;SDS011;3302;52.508;13.454;2024-02-28T00:31:22;16.30;;;8.77;;
6537;SDS011;3302;52.508;13.454;2024-02-28T00:33:48;16.83;;;10.13;;
6537;SDS011;3302;52.508;13.454;2024-02-28T00:36:13;15.33;;;9.10;;
6537;SDS011;3302;52.508;13.454;2024-02-28T00:38:40;18.80;;;10.00;;
6537;SDS011;3302;52.508;13.454;2024-02-28T00:41:06;15.23;;;8.70;;
6537;SDS011;3302;52.508;13.454;2024-02-28T00:43:32;18.03;;;10.17;;
6537;SDS011;3302;52.508;13.454;2024-02-28T00:45:58;16.00;;;9.33;;
6537;SDS011;3302;52.508;13.454;2024-02-28T00:48:24;16.70;;;9.33;;
6537;SDS011;3302;52.508;13.454;2024-02-28T00:50:50;14.13;;;9.00;;
6537;SDS011;3302;52.508;13.454;2024-02-28T00:53:17;15.77;;;9.10;;
6537;SDS011;3302;52.508;13.454;2024-02-28T00:55:43;18.80;;;9.93;;
6537;SDS011;3302;52.508;13.454;2024-02-28T00:58:09;16.60;;;9.70;;
6537;SDS011;3302;52.508;13.454;2024-02-28T01:00:35;15.83;;;9.97;;
6537;SDS011;3302;52.508;13.454;2024-02-28T01:03:01;16.93;;;9.60;;
6537;SDS011;3302;52.508;13.454;2024-02-28T01:05:30;15.70;;;8.93;;
6537;SDS011;3302;52.508;13.454;2024-02-28T01:07:56;18.33;;;9.93;;
6537;SDS011;3302;52.508;13.454;2024-02-28T01:10:22;15.87;;;9.40;;
6537;SDS011;3302;52.508;13.454;2024-02-28T01:12:48;16.50;;;9.10;;
6537;SDS011;3302;52.508;13.454;2024-02-28T01:15:14;12.93;;;8.93;;
6537;SDS011;3302;52.508;13.454;2024-02-28T01:17:40;17.13;;;9.40;;
6537;SDS011;3302;52.508;13.454;2024-02-28T01:20:06;15.20;;;9.27;;
6537;SDS011;3302;52.508;13.454;2024-02-28T01:22:33;16.13;;;8.83;;
6537;SDS011;3302;52.508;13.454;2024-02-28T01:25:00;14.57;;;8.53;;
6537;SDS011;3302;52.508;13.454;2024-02-28T01:27:28;16.70;;;9.73;;
6537;SDS011;3302;52.508;13.454;2024-02-28T01:29:54;14.20;;;8.40;;
6537;SDS011;3302;52.508;13.454;2024-02-28T01:32:19;18.27;;;8.63;;
6537;SDS011;3302;52.508;13.454;2024-02-28T01:34:46;13.80;;;8.03;;
6537;SDS011;3302;52.508;13.454;2024-02-28T01:37:11;11.90;;;7.73;;
6537;SDS011;3302;52.508;13.454;2024-02-28T01:39:38;14.40;;;8.40;;
6537;SDS011;3302;52.508;13.454;2024-02-28T01:42:03;14.33;;;8.30;;
6537;SDS011;3302;52.508;13.454;2024-02-28T01:44:29;12.77;;;8.00;;
6537;SDS011;3302;52.508;13.454;2024-02-28T01:46:55;14.00;;;7.90;;
6537;SDS011;3302;52.508;13.454;2024-02-28T01:49:23;13.33;;;8.00;;
6537;SDS011;3302;52.508;13.454;2024-02-28T01:51:50;10.50;;;7.20;;
6537;SDS011;3302;52.508;13.454;2024-02-28T01:54:18;13.17;;;7.97;;
6537;SDS011;3302;52.508;13.454;2024-02-28T01:56:45;12.67;;;7.53;;
6537;SDS011;3302;52.508;13.454;2024-02-28T01:59:12;14.17;;;7.90;;
6537;SDS011;3302;52.508;13.454;2024-02-28T02:01:38;14.60;;;8.40;;
6537;SDS011;3302;52.508;13.454;2024-02-28T02:04:04;17.23;;;8.47;;
6537;SDS011;3302;52.508;13.454;2024-02-28T02:06:31;13.17;;;8.10;;
6537;SDS011;3302;52.508;13.454;2024-02-28T02:08:58;12.43;;;7.60;;
6537;SDS011;3302;52.508;13.454;2024-02-28T02:11:24;14.63;;;8.50;;
6537;SDS011;3302;52.508;13.454;2024-02-28T02:13:51;15.23;;;8.57;;
6537;SDS011;3302;52.508;13.454;2024-02-28T02:16:18;13.27;;;7.60;;
6537;SDS011;3302;52.508;13.454;2024-02-28T02:18:47;11.87;;;7.37;;
6537;SDS011;3302;52.508;13.454;2024-02-28T02:21:14;12.10;;;7.00;;
6537;SDS011;3302;52.508;13.454;2024-02-28T02:23:47;12.57;;;6.73;;
6537;SDS011;3302;52.508;13.454;2024-02-28T02:26:13;11.50;;;6.43;;
6537;SDS011;3302;52.508;13.454;2024-02-28T02:28:39;10.73;;;6.10;;
6537;SDS011;3302;52.508;13.454;2024-02-28T02:31:05;8.27;;;5.93;;
6537;SDS011;3302;52.508;13.454;2024-02-28T02:33:31;10.73;;;6.33;;
6537;SDS011;3302;52.508;13.454;2024-02-28T02:35:57;9.13;;;5.80;;
6537;SDS011;3302;52.508;13.454;2024-02-28T02:38:23;8.17;;;5.70;;
6537;SDS011;3302;52.508;13.454;2024-02-28T02:40:49;8.50;;;5.60;;
6537;SDS011;3302;52.508;13.454;2024-02-28T02:43:16;9.27;;;5.70;;
6537;SDS011;3302;52.508;13.454;2024-02-28T02:45:42;10.53;;;5.97;;
6537;SDS011;3302;52.508;13.454;2024-02-28T02:48:08;12.37;;;7.50;;
6537;SDS011;3302;52.508;13.454;2024-02-28T02:50:34;12.87;;;7.00;;
6537;SDS011;3302;52.508;13.454;2024-02-28T02:53:01;11.60;;;6.93;;
6537;SDS011;3302;52.508;13.454;2024-02-28T02:55:27;11.33;;;6.97;;
6537;SDS011;3302;52.508;13.454;2024-02-28T02:57:53;11.77;;;7.20;;
6537;SDS011;3302;52.508;13.454;2024-02-28T03:00:20;12.27;;;7.17;;
6537;SDS011;3302;52.508;13.454;2024-02-28T03:02:46;11.83;;;7.13;;
6537;SDS011;3302;52.508;13.454;2024-02-28T03:05:12;10.83;;;6.80;;
6537;SDS011;3302;52.508;13.454;2024-02-28T03:07:38;10.63;;;6.67;;
6537;SDS011;3302;52.508;13.454;2024-02-28T03:10:04;9.10;;;5.83;;
6537;SDS011;3302;52.508;13.454;2024-02-28T03:12:30;10.13;;;6.77;;
6537;SDS011;3302;52.508;13.454;2024-02-28T03:14:56;10.03;;;6.00;;
6537;SDS011;3302;52.508;13.454;2024-02-28T03:17:22;11.13;;;6.13;;
6537;SDS011;3302;52.508;13.454;2024-02-28T03:19:48;8.90;;;5.47;;
6537;SDS011;3302;52.508;13.454;2024-02-28T03:22:14;9.87;;;5.83;;
6537;SDS011;3302;52.508;13.454;2024-02-28T03:24:41;9.73;;;6.37;;
6537;SDS011;3302;52.508;13.454;2024-02-28T03:27:07;10.87;;;6.27;;
6537;SDS011;3302;52.508;13.454;2024-02-28T03:29:33;9.27;;;6.10;;
6537;SDS011;3302;52.508;13.454;2024-02-28T03:31:59;9.63;;;6.00;;
6537;SDS011;3302;52.508;13.454;2024-02-28T03:34:25;9.87;;;6.20;;
6537;SDS011;3302;52.508;13.454;2024-02-28T03:36:51;8.20;;;5.60;;
6537;SDS011;3302;52.508;13.454;2024-02-28T03:39:17;8.67;;;5.57;;
6537;SDS011;3302;52.508;13.454;2024-02-28T03:41:43;8.50;;;5.30;;
6537;SDS011;3302;52.508;13.454;2024-02-28T03:44:08;8.07;;;5.00;;
6537;SDS011;3302;52.508;13.454;2024-02-28T03:46:35;8.73;;;5.37;;
6537;SDS011;3302;52.508;13.454;2024-02-28T03:49:00;8.40;;;5.87;;
6537;SDS011;3302;52.508;13.454;2024-02-28T03:51:26;8.60;;;5.50;;
6537;SDS011;3302;52.508;13.454;2024-02-28T03:53:52;8.37;;;5.57;;
6537;SDS011;3302;52.508;13.454;2024-02-28T03:56:24;8.40;;;5.07;;
6537;SDS011;3302;52.508;13.454;2024-02-28T03:58:51;9.03;;;5.03;;
6537;SDS011;3302;52.508;13.454;2024-02-28T04:01:17;7.43;;;4.77;;
6537;SDS011;3302;52.508;13.454;2024-02-28T04:03:43;8.03;;;4.97;;
6537;SDS011;3302;52.508;13.454;2024-02-28T04:06:10;8.20;;;5.10;;
6537;SDS011;3302;52.508;13.454;2024-02-28T04:08:36;7.27;;;4.87;;
6537;SDS011;3302;52.508;13.454;2024-02-28T04:11:02;7.17;;;5.23;;
6537;SDS011;3302;52.508;13.454;2024-02-28T04:13:28;7.33;;;4.50;;
6537;SDS011;3302;52.508;13.454;2024-02-28T04:15:54;8.27;;;4.63;;
6537;SDS011;3302;52.508;13.454;2024-02-28T04:18:20;6.97;;;4.53;;
6537;SDS011;3302;52.508;13.454;2024-02-28T04:20:46;6.57;;;4.00;;
6537;SDS011;3302;52.508;13.454;2024-02-28T04:23:12;5.43;;;3.87;;
6537;SDS011;3302;52.508;13.454;2024-02-28T04:25:38;6.67;;;4.10;;
6537;SDS011;3302;52.508;13.454;2024-02-28T04:28:05;5.57;;;3.33;;
6537;SDS011;3302;52.508;13.454;2024-02-28T04:30:33;6.53;;;3.70;;
6537;SDS011;3302;52.508;13.454;2024-02-28T04:32:59;5.17;;;3.30;;
6537;SDS011;3302;52.508;13.454;2024-02-28T04:35:25;4.10;;;2.90;;
6537;SDS011;3302;52.508;13.454;2024-02-28T04:37:51;5.13;;;3.57;;
6537;SDS011;3302;52.508;13.454;2024-02-28T04:40:17;4.60;;;2.97;;
6537;SDS011;3302;52.508;13.454;2024-02-28T04:42:43;5.67;;;3.40;;
6537;SDS011;3302;52.508;13.454;2024-02-28T04:45:09;4.00;;;2.60;;
6537;SDS011;3302;52.508;13.454;2024-02-28T04:47:35;4.73;;;3.20;;
6537;SDS011;3302;52.508;13.454;2024-02-28T04:50:02;4.80;;;3.20;;
6537;SDS011;3302;52.508;13.454;2024-02-28T04:52:30;5.60;;;3.20;;
6537;SDS011;3302;52.508;13.454;2024-02-28T04:54:56;3.63;;;2.70;;
6537;SDS011;3302;52.508;13.454;2024-02-28T04:57:22;6.23;;;3.40;;
6537;SDS011;3302;52.508;13.454;2024-02-28T04:59:48;4.00;;;2.90;;
6537;SDS011;3302;52.508;13.454;2024-02-28T05:02:14;4.40;;;2.80;;
6537;SDS011;3302;52.508;13.454;2024-02-28T05:04:40;4.80;;;2.80;;
6537;SDS011;3302;52.508;13.454;2024-02-28T05:07:06;4.50;;;3.10;;
6537;SDS011;3302;52.508;13.454;2024-02-28T05:09:33;6.23;;;3.43;;
6537;SDS011;3302;52.508;13.454;2024-02-28T05:11:59;5.40;;;3.60;;
6537;SDS011;3302;52.508;13.454;2024-02-28T05:14:25;5.27;;;3.70;;
6537;SDS011;3302;52.508;13.454;2024-02-28T05:16:50;4.63;;;3.30;;
6537;SDS011;3302;52.508;13.454;2024-02-28T05:19:16;5.83;;;3.53;;
6537;SDS011;3302;52.508;13.454;2024-02-28T05:21:45;5.17;;;3.77;;
6537;SDS011;3302;52.508;13.454;2024-02-28T05:24:11;5.57;;;3.70;;
6537;SDS011;3302;52.508;13.454;2024-02-28T05:26:38;6.27;;;4.37;;
6537;SDS011;3302;52.508;13.454;2024-02-28T05:29:04;6.13;;;4.30;;
6537;SDS011;3302;52.508;13.454;2024-02-28T05:31:31;6.40;;;3.90;;
6537;SDS011;3302;52.508;13.454;2024-02-28T05:33:57;9.00;;;4.97;;
6537;SDS011;3302;52.508;13.454;2024-02-28T05:36:25;6.07;;;4.50;;
6537;SDS011;3302;52.508;13.454;2024-02-28T05:38:52;9.80;;;4.50;;
6537;SDS011;3302;52.508;13.454;2024-02-28T05:41:19;9.00;;;5.17;;
6537;SDS011;3302;52.508;13.454;2024-02-28T05:43:45;9.43;;;5.20;;
6537;SDS011;3302;52.508;13.454;2024-02-28T05:46:12;7.17;;;4.37;;
6537;SDS011;3302;52.508;13.454;2024-02-28T05:48:40;6.20;;;4.27;;
6537;SDS011;3302;52.508;13.454;2024-02-28T05:51:06;6.37;;;4.00;;
6537;SDS011;3302;52.508;13.454;2024-02-28T05:53:32;5.67;;;3.97;;
6537;SDS011;3302;52.508;13.454;2024-02-28T05:56:01;6.47;;;4.00;;
6537;SDS011;3302;52.508;13.454;2024-02-28T05:58:27;7.30;;;3.73;;
6537;SDS011;3302;52.508;13.454;2024-02-28T06:00:53;5.93;;;3.50;;
6537;SDS011;3302;52.508;13.454;2024-02-28T06:03:19;5.83;;;3.93;;
6537;SDS011;3302;52.508;13.454;2024-02-28T06:05:45;5.83;;;3.90;;
6537;SDS011;3302;52.508;13.454;2024-02-28T06:08:12;5.73;;;3.90;;
6537;SDS011;3302;52.508;13.454;2024-02-28T06:10:38;5.67;;;4.13;;
6537;SDS011;3302;52.508;13.454;2024-02-28T06:13:04;5.83;;;4.20;;
6537;SDS011;3302;52.508;13.454;2024-02-28T06:15:30;5.30;;;4.13;;
6537;SDS011;3302;52.508;13.454;2024-02-28T06:17:56;6.10;;;4.30;;
6537;SDS011;3302;52.508;13.454;2024-02-28T06:20:24;6.57;;;4.17;;
6537;SDS011;3302;52.508;13.454;2024-02-28T06:22:50;5.97;;;4.43;;
6537;SDS011;3302;52.508;13.454;2024-02-28T06:25:16;6.83;;;4.37;;
6537;SDS011;3302;52.508;13.454;2024-02-28T06:27:53;6.07;;;4.40;;
6537;SDS011;3302;52.508;13.454;2024-02-28T06:30:19;5.87;;;3.90;;
6537;SDS011;3302;52.508;13.454;2024-02-28T06:32:45;6.23;;;4.07;;
6537;SDS011;3302;52.508;13.454;2024-02-28T06:35:10;6.13;;;4.03;;
6537;SDS011;3302;52.508;13.454;2024-02-28T06:37:36;7.23;;;4.53;;
6537;SDS011;3302;52.508;13.454;2024-02-28T06:40:02;7.80;;;5.20;;
6537;SDS011;3302;52.508;13.454;2024-02-28T06:42:34;8.00;;;5.17;;
6537;SDS011;3302;52.508;13.454;2024-02-28T06:45:04;7.40;;;5.10;;
6537;SDS011;3302;52.508;13.454;2024-02-28T06:47:30;8.17;;;5.07;;
6537;SDS011;3302;52.508;13.454;2024-02-28T06:49:58;8.47;;;4.90;;
6537;SDS011;3302;52.508;13.454;2024-02-28T06:52:23;9.20;;;6.83;;
6537;SDS011;3302;52.508;13.454;2024-02-28T06:54:49;10.53;;;7.37;;
6537;SDS011;3302;52.508;13.454;2024-02-28T06:57:16;9.73;;;6.93;;
6537;SDS011;3302;52.508;13.454;2024-02-28T06:59:42;10.70;;;6.87;;
6537;SDS011;3302;52.508;13.454;2024-02-28T07:02:08;8.90;;;5.87;;
6537;SDS011;3302;52.508;13.454;2024-02-28T07:04:34;8.60;;;6.00;;
6537;SDS011;3302;52.508;13.454;2024-02-28T07:07:00;11.80;;;7.40;;
6537;SDS011;3302;52.508;13.454;2024-02-28T07:09:26;10.77;;;6.83;;
6537;SDS011;3302;52.508;13.454;2024-02-28T07:11:55;11.30;;;7.83;;
6537;SDS011;3302;52.508;13.454;2024-02-28T07:14:20;10.77;;;7.70;;
6537;SDS011;3302;52.508;13.454;2024-02-28T07:16:46;11.30;;;7.77;;
6537;SDS011;3302;52.508;13.454;2024-02-28T07:19:12;11.63;;;7.60;;
6537;SDS011;3302;52.508;13.454;2024-02-28T07:21:37;12.37;;;8.53;;
6537;SDS011;3302;52.508;13.454;2024-02-28T07:24:03;11.80;;;8.33;;
6537;SDS011;3302;52.508;13.454;2024-02-28T07:26:31;15.20;;;8.63;;
6537;SDS011;3302;52.508;13.454;2024-02-28T07:28:57;13.00;;;7.80;;
6537;SDS011;3302;52.508;13.454;2024-02-28T07:31:23;13.37;;;8.77;;
6537;SDS011;3302;52.508;13.454;2024-02-28T07:33:48;14.33;;;8.33;;
6537;SDS011;3302;52.508;13.454;2024-02-28T07:36:14;10.73;;;7.10;;
6537;SDS011;3302;52.508;13.454;2024-02-28T07:38:43;11.90;;;7.47;;
6537;SDS011;3302;52.508;13.454;2024-02-28T07:41:09;12.80;;;7.73;;
6537;SDS011;3302;52.508;13.454;2024-02-28T07:43:34;10.00;;;6.80;;
6537;SDS011;3302;52.508;13.454;2024-02-28T07:46:09;10.30;;;7.00;;
6537;SDS011;3302;52.508;13.454;2024-02-28T07:48:36;9.97;;;7.43;;
6537;SDS011;3302;52.508;13.454;2024-02-28T07:51:05;12.07;;;7.60;;
6537;SDS011;3302;52.508;13.454;2024-02-28T07:53:34;10.30;;;7.33;;
6537;SDS011;3302;52.508;13.454;2024-02-28T07:56:00;9.47;;;7.10;;
6537;SDS011;3302;52.508;13.454;2024-02-28T07:58:26;11.43;;;8.33;;
6537;SDS011;3302;52.508;13.454;2024-02-28T08:00:52;11.50;;;8.43;;
6537;SDS011;3302;52.508;13.454;2024-02-28T08:03:18;13.40;;;9.03;;
6537;SDS011;3302;52.508;13.454;2024-02-28T08:05:44;10.97;;;7.90;;
6537;SDS011;3302;52.508;13.454;2024-02-28T08:08:11;13.97;;;9.00;;
6537;SDS011;3302;52.508;13.454;2024-02-28T08:10:37;8.87;;;6.37;;
6537;SDS011;3302;52.508;13.454;2024-02-28T08:13:06;9.03;;;6.57;;
6537;SDS011;3302;52.508;13.454;2024-02-28T08:15:32;10.50;;;7.20;;
6537;SDS011;3302;52.508;13.454;2024-02-28T08:17:58;12.17;;;7.97;;
6537;SDS011;3302;52.508;13.454;2024-02-28T08:20:24;9.57;;;7.30;;
6537;SDS011;3302;52.508;13.454;2024-02-28T08:22:50;10.77;;;7.37;;
6537;SDS011;3302;52.508;13.454;2024-02-28T08:25:22;10.63;;;8.00;;
6537;SDS011;3302;52.508;13.454;2024-02-28T08:27:48;10.47;;;7.47;;
6537;SDS011;3302;52.508;13.454;2024-02-28T08:30:14;11.10;;;7.30;;
6537;SDS011;3302;52.508;13.454;2024-02-28T08:32:41;9.40;;;6.73;;
6537;SDS011;3302;52.508;13.454;2024-02-28T08:35:08;10.63;;;7.40;;
6537;SDS011;3302;52.508;13.454;2024-02-28T08:37:35;12.77;;;7.87;;
6537;SDS011;3302;52.508;13.454;2024-02-28T08:40:03;10.63;;;7.07;;
6537;SDS011;3302;52.508;13.454;2024-02-28T08:42:29;11.13;;;6.77;;
6537;SDS011;3302;52.508;13.454;2024-02-28T08:44:55;9.50;;;6.43;;
6537;SDS011;3302;52.508;13.454;2024-02-28T08:47:24;9.23;;;6.73;;
6537;SDS011;3302;52.508;13.454;2024-02-28T08:49:50;8.10;;;6.30;;
6537;SDS011;3302;52.508;13.454;2024-02-28T08:52:17;8.90;;;5.80;;
6537;SDS011;3302;52.508;13.454;2024-02-28T08:54:43;8.77;;;6.40;;
6537;SDS011;3302;52.508;13.454;2024-02-28T08:57:09;11.23;;;6.30;;
6537;SDS011;3302;52.508;13.454;2024-02-28T08:59:35;9.97;;;6.73;;
6537;SDS011;3302;52.508;13.454;2024-02-28T09:02:01;9.27;;;6.43;;
6537;SDS011;3302;52.508;13.454;2024-02-28T09:04:27;8.47;;;6.30;;
6537;SDS011;3302;52.508;13.454;2024-02-28T09:06:55;11.10;;;7.50;;
6537;SDS011;3302;52.508;13.454;2024-02-28T09:09:21;10.10;;;7.03;;
6537;SDS011;3302;52.508;13.454;2024-02-28T09:11:46;12.30;;;8.03;;
6537;SDS011;3302;52.508;13.454;2024-02-28T09:14:12;11.50;;;8.43;;
6537;SDS011;3302;52.508;13.454;2024-02-28T09:16:38;9.17;;;6.70;;
6537;SDS011;3302;52.508;13.454;2024-02-28T09:19:04;9.60;;;6.40;;
6537;SDS011;3302;52.508;13.454;2024-02-28T09:21:30;11.63;;;7.97;;
6537;SDS011;3302;52.508;13.454;2024-02-28T09:23:55;11.83;;;8.57;;
6537;SDS011;3302;52.508;13.454;2024-02-28T09:26:21;11.50;;;7.63;;
6537;SDS011;3302;52.508;13.454;2024-02-28T09:28:47;12.03;;;8.27;;
6537;SDS011;3302;52.508;13.454;2024-02-28T09:31:13;13.67;;;9.10;;
6537;SDS011;3302;52.508;13.454;2024-02-28T09:33:40;13.93;;;9.30;;
6537;SDS011;3302;52.508;13.454;2024-02-28T09:36:06;17.33;;;9.83;;
6537;SDS011;3302;52.508;13.454;2024-02-28T09:38:32;13.83;;;9.43;;
6537;SDS011;3302;52.508;13.454;2024-02-28T09:41:00;12.40;;;8.90;;
6537;SDS011;3302;52.508;13.454;2024-02-28T09:43:30;18.83;;;10.57;;
6537;SDS011;3302;52.508;13.454;2024-02-28T09:46:03;14.77;;;9.73;;
6537;SDS011;3302;52.508;13.454;2024-02-28T09:48:32;16.10;;;9.53;;
6537;SDS011;3302;52.508;13.454;2024-02-28T09:50:58;16.73;;;10.03;;
6537;SDS011;3302;52.508;13.454;2024-02-28T09:53:26;14.73;;;10.10;;
6537;SDS011;3302;52.508;13.454;2024-02-28T09:55:52;14.93;;;9.90;;
6537;SDS011;3302;52.508;13.454;2024-02-28T09:58:18;16.23;;;9.60;;
6537;SDS011;3302;52.508;13.454;2024-02-28T10:00:47;15.60;;;10.40;;
6537;SDS011;3302;52.508;13.454;2024-02-28T10:03:15;17.57;;;10.30;;
6537;SDS011;3302;52.508;13.454;2024-02-28T10:05:44;15.57;;;10.07;;
6537;SDS011;3302;52.508;13.454;2024-02-28T10:08:11;15.27;;;10.27;;
6537;SDS011;3302;52.508;13.454;2024-02-28T10:10:38;16.10;;;10.67;;
6537;SDS011;3302;52.508;13.454;2024-02-28T10:13:09;16.40;;;10.70;;
6537;SDS011;3302;52.508;13.454;2024-02-28T10:15:35;17.20;;;10.37;;
6537;SDS011;3302;52.508;13.454;2024-02-28T10:18:01;17.60;;;11.23;;
6537;SDS011;3302;52.508;13.454;2024-02-28T10:20:26;19.67;;;12.90;;
6537;SDS011;3302;52.508;13.454;2024-02-28T10:22:52;19.43;;;12.27;;
6537;SDS011;3302;52.508;13.454;2024-02-28T10:25:18;15.43;;;10.63;;
6537;SDS011;3302;52.508;13.454;2024-02-28T10:27:44;14.03;;;9.33;;
6537;SDS011;3302;52.508;13.454;2024-02-28T10:30:12;12.83;;;8.27;;
6537;SDS011;3302;52.508;13.454;2024-02-28T10:32:47;12.70;;;8.40;;
6537;SDS011;3302;52.508;13.454;2024-02-28T10:35:14;13.63;;;8.47;;
6537;SDS011;3302;52.508;13.454;2024-02-28T10:37:44;13.53;;;7.97;;
6537;SDS011;3302;52.508;13.454;2024-02-28T10:40:13;13.53;;;8.80;;
6537;SDS011;3302;52.508;13.454;2024-02-28T10:42:43;13.60;;;9.40;;
6537;SDS011;3302;52.508;13.454;2024-02-28T10:45:12;15.90;;;9.57;;
6537;SDS011;3302;52.508;13.454;2024-02-28T10:47:38;15.07;;;9.13;;
6537;SDS011;3302;52.508;13.454;2024-02-28T10:50:04;15.73;;;8.80;;
6537;SDS011;3302;52.508;13.454;2024-02-28T10:52:35;13.33;;;8.57;;
6537;SDS011;3302;52.508;13.454;2024-02-28T10:55:08;14.33;;;8.53;;
6537;SDS011;3302;52.508;13.454;2024-02-28T10:57:34;14.20;;;8.93;;
6537;SDS011;3302;52.508;13.454;2024-02-28T11:00:02;13.27;;;8.50;;
6537;SDS011;3302;52.508;13.454;2024-02-28T11:02:30;13.40;;;8.40;;
6537;SDS011;3302;52.508;13.454;2024-02-28T11:04:57;15.20;;;9.83;;
6537;SDS011;3302;52.508;13.454;2024-02-28T11:07:25;16.27;;;10.10;;
6537;SDS011;3302;52.508;13.454;2024-02-28T11:09:54;14.93;;;9.83;;
6537;SDS011;3302;52.508;13.454;2024-02-28T11:12:27;15.47;;;9.10;;
6537;SDS011;3302;52.508;13.454;2024-02-28T11:14:57;16.33;;;11.13;;
6537;SDS011;3302;52.508;13.454;2024-02-28T11:17:28;16.00;;;9.67;;
6537;SDS011;3302;52.508;13.454;2024-02-28T11:19:56;15.37;;;10.03;;
6537;SDS011;3302;52.508;13.454;2024-02-28T11:22:22;17.43;;;10.33;;
6537;SDS011;3302;52.508;13.454;2024-02-28T11:24:48;18.90;;;12.93;;
6537;SDS011;3302;52.508;13.454;2024-02-28T11:27:18;17.70;;;13.07;;
6537;SDS011;3302;52.508;13.454;2024-02-28T11:29:44;18.77;;;12.20;;
6537;SDS011;3302;52.508;13.454;2024-02-28T11:32:15;17.57;;;12.20;;
6537;SDS011;3302;52.508;13.454;2024-02-28T11:34:41;16.67;;;10.97;;
6537;SDS011;3302;52.508;13.454;2024-02-28T11:37:09;17.27;;;11.40;;
6537;SDS011;3302;52.508;13.454;2024-02-28T11:39:35;14.37;;;9.87;;
6537;SDS011;3302;52.508;13.454;2024-02-28T11:44:38;14.77;;;9.60;;
6537;SDS011;3302;52.508;13.454;2024-02-28T11:47:05;17.60;;;10.53;;
6537;SDS011;3302;52.508;13.454;2024-02-28T11:49:34;14.67;;;10.17;;
6537;SDS011;3302;52.508;13.454;2024-02-28T11:52:00;15.20;;;10.27;;
6537;SDS011;3302;52.508;13.454;2024-02-28T11:54:26;13.00;;;9.50;;
6537;SDS011;3302;52.508;13.454;2024-02-28T11:56:51;13.87;;;9.50;;
6537;SDS011;3302;52.508;13.454;2024-02-28T11:59:17;12.90;;;8.77;;
6537;SDS011;3302;52.508;13.454;2024-02-28T12:01:44;13.30;;;9.07;;
6537;SDS011;3302;52.508;13.454;2024-02-28T12:04:11;11.97;;;8.00;;
6537;SDS011;3302;52.508;13.454;2024-02-28T12:06:38;12.73;;;8.47;;
6537;SDS011;3302;52.508;13.454;2024-02-28T12:09:06;12.40;;;8.10;;
6537;SDS011;3302;52.508;13.454;2024-02-28T12:11:34;14.27;;;8.63;;
6537;SDS011;3302;52.508;13.454;2024-02-28T12:14:04;12.60;;;8.33;;
6537;SDS011;3302;52.508;13.454;2024-02-28T12:16:37;11.73;;;8.90;;
6537;SDS011;3302;52.508;13.454;2024-02-28T12:19:06;11.90;;;7.73;;
6537;SDS011;3302;52.508;13.454;2024-02-28T12:21:33;12.23;;;8.20;;
6537;SDS011;3302;52.508;13.454;2024-02-28T12:23:59;12.07;;;8.33;;
6537;SDS011;3302;52.508;13.454;2024-02-28T12:26:26;12.67;;;8.57;;
6537;SDS011;3302;52.508;13.454;2024-02-28T12:28:52;11.60;;;6.90;;
6537;SDS011;3302;52.508;13.454;2024-02-28T12:31:18;10.33;;;7.50;;
6537;SDS011;3302;52.508;13.454;2024-02-28T12:33:44;9.60;;;6.90;;
6537;SDS011;3302;52.508;13.454;2024-02-28T12:36:10;11.17;;;7.23;;
6537;SDS011;3302;52.508;13.454;2024-02-28T12:38:35;11.83;;;6.93;;
6537;SDS011;3302;52.508;13.454;2024-02-28T12:41:02;10.10;;;6.87;;
6537;SDS011;3302;52.508;13.454;2024-02-28T12:43:29;10.30;;;6.63;;
6537;SDS011;3302;52.508;13.454;2024-02-28T12:45:56;12.60;;;6.57;;
6537;SDS011;3302;52.508;13.454;2024-02-28T12:48:22;11.37;;;7.20;;
6537;SDS011;3302;52.508;13.454;2024-02-28T12:50:48;10.47;;;7.27;;
6537;SDS011;3302;52.508;13.454;2024-02-28T12:53:14;9.70;;;7.30;;
6537;SDS011;3302;52.508;13.454;2024-02-28T12:55:40;10.87;;;6.83;;
6537;SDS011;3302;52.508;13.454;2024-02-28T12:58:07;11.10;;;7.73;;
6537;SDS011;3302;52.508;13.454;2024-02-28T13:00:33;10.43;;;7.40;;
6537;SDS011;3302;52.508;13.454;2024-02-28T13:02:59;14.67;;;8.43;;
6537;SDS011;3302;52.508;13.454;2024-02-28T13:05:24;12.63;;;7.93;;
6537;SDS011;3302;52.508;13.454;2024-02-28T13:07:51;12.87;;;8.47;;
6537;SDS011;3302;52.508;13.454;2024-02-28T13:10:18;13.70;;;8.67;;
6537;SDS011;3302;52.508;13.454;2024-02-28T13:12:43;11.17;;;8.10;;
6537;SDS011;3302;52.508;13.454;2024-02-28T13:15:09;11.63;;;7.63;;
6537;SDS011;3302;52.508;13.454;2024-02-28T13:17:35;10.67;;;7.40;;
6537;SDS011;3302;52.508;13.454;2024-02-28T13:20:01;12.77;;;8.37;;
6537;SDS011;3302;52.508;13.454;2024-02-28T13:22:28;11.70;;;8.30;;
6537;SDS011;3302;52.508;13.454;2024-02-28T13:24:54;11.43;;;7.93;;
6537;SDS011;3302;52.508;13.454;2024-02-28T13:27:20;12.37;;;8.93;;
6537;SDS011;3302;52.508;13.454;2024-02-28T13:29:46;10.07;;;7.87;;
6537;SDS011;3302;52.508;13.454;2024-02-28T13:32:12;11.83;;;8.13;;
6537;SDS011;3302;52.508;13.454;2024-02-28T13:34:39;11.73;;;8.43;;
6537;SDS011;3302;52.508;13.454;2024-02-28T13:37:04;12.90;;;8.77;;
6537;SDS011;3302;52.508;13.454;2024-02-28T13:39:30;11.93;;;8.37;;
6537;SDS011;3302;52.508;13.454;2024-02-28T13:41:56;10.90;;;8.27;;
6537;SDS011;3302;52.508;13.454;2024-02-28T13:44:22;9.87;;;7.07;;
6537;SDS011;3302;52.508;13.454;2024-02-28T13:46:51;12.20;;;8.47;;
6537;SDS011;3302;52.508;13.454;2024-02-28T13:49:18;9.87;;;7.63;;
6537;SDS011;3302;52.508;13.454;2024-02-28T13:51:44;13.43;;;9.33;;
6537;SDS011;3302;52.508;13.454;2024-02-28T13:54:11;12.53;;;8.67;;
6537;SDS011;3302;52.508;13.454;2024-02-28T13:56:36;13.13;;;8.47;;
6537;SDS011;3302;52.508;13.454;2024-02-28T13:59:03;11.23;;;8.50;;
6537;SDS011;3302;52.508;13.454;2024-02-28T14:01:28;12.73;;;8.30;;
6537;SDS011;3302;52.508;13.454;2024-02-28T14:03:54;11.17;;;7.90;;
6537;SDS011;3302;52.508;13.454;2024-02-28T14:06:20;12.27;;;8.17;;
6537;SDS011;3302;52.508;13.454;2024-02-28T14:08:46;13.03;;;8.57;;
6537;SDS011;3302;52.508;13.454;2024-02-28T14:11:12;11.43;;;8.33;;
6537;SDS011;3302;52.508;13.454;2024-02-28T14:13:37;12.97;;;7.93;;
6537;SDS011;3302;52.508;13.454;2024-02-28T14:16:04;12.90;;;7.80;;
6537;SDS011;3302;52.508;13.454;2024-02-28T14:18:30;12.23;;;8.37;;
6537;SDS011;3302;52.508;13.454;2024-02-28T14:20:56;12.77;;;8.27;;
6537;SDS011;3302;52.508;13.454;2024-02-28T14:23:22;12.23;;;7.30;;
6537;SDS011;3302;52.508;13.454;2024-02-28T14:25:48;11.33;;;7.40;;
6537;SDS011;3302;52.508;13.454;2024-02-28T14:28:14;13.33;;;8.03;;
6537;SDS011;3302;52.508;13.454;2024-02-28T14:30:40;11.00;;;7.63;;
6537;SDS011;3302;52.508;13.454;2024-02-28T14:33:07;11.03;;;7.17;;
6537;SDS011;3302;52.508;13.454;2024-02-28T14:35:33;11.30;;;7.43;;
6537;SDS011;3302;52.508;13.454;2024-02-28T14:37:59;12.07;;;7.90;;
6537;SDS011;3302;52.508;13.454;2024-02-28T14:40:25;10.70;;;7.83;;
6537;SDS011;3302;52.508;13.454;2024-02-28T14:42:51;13.23;;;8.30;;
6537;SDS011;3302;52.508;13.454;2024-02-28T14:45:17;10.60;;;8.10;;
6537;SDS011;3302;52.508;13.454;2024-02-28T14:47:43;13.50;;;8.57;;
6537;SDS011;3302;52.508;13.454;2024-02-28T14:50:10;12.17;;;8.23;;